LiveATC.Net - Listen to live air traffic control over the Internet! Contact LiveATC.net for advertising information


ICAO: ENGM  IATA: OSL   Airport: Oslo Gardermoen Airport
City: Oslo
Country: Norway   Continent: Europe
ENGM METAR Weather: ENGM 241420Z 18015KT 9999 VCSH BKN007 12/11 Q1008 TEMPO BKN004
ENGM Flight Activity (FlightAware)
ENGM Approach/UNICOM
Feed Status: DOWN
Last heard on: 2014-10-20 15:54:03 (3 days 22 hours 53 minutes ago)
ENGM Approach/UNICOM Audio Archives
FacilityFrequency
Oslo Approach118.475
Oslo Approach120.450
Oslo Area UNICOM122.000
Oslo Director136.400
Oslo Final128.900


NOTICE

Unauthorized use prohibited. See LiveATC.net Terms of Service


Find LiveATC Audio Streams


Airport/ARTCC Code

Frequency
(e.g., 124.400, 128.75)
Site-wide search

Browse LiveATC Feeds
LiveATC Coverage Map
Top 50 LiveATC Feeds
Bad Weather Areas

LiveATC FAQ
Offer a LiveATC Feed
Contact LiveATC.net
Press Inquiries

LiveATC on iPhone
LiveATC on Android

LiveATC Mobile
(Mobile browser)

ATC Audio Archives
Interesting Recordings

LiveATC Forums


Home Page
About LiveATC.net
Make a Donation
LiveATC Bookstore

Terms of Use
Privacy Policy

ATC/Radar Sites
U.S. ARTCC Freqs
Canadian Air Freqs

AIRMETs/SIGMETs

FAA Airport Status
Nat'l Airspace Status
Arrival Demand Charts


Server Software By:
Icecast.org
Liquidsoap

Please make a donation to help us keep growing!